createdAt,value
2022-10-15T00:00:55.272Z,14
2022-10-15T00:06:07.292Z,15
2022-10-15T00:11:19.366Z,15
2022-10-15T00:16:31.273Z,15
2022-10-15T00:21:43.126Z,15
2022-10-15T00:26:54.976Z,14
2022-10-15T00:32:07.059Z,15
2022-10-15T00:37:18.899Z,14
2022-10-15T00:42:30.742Z,15
2022-10-15T00:47:44.880Z,15
2022-10-15T00:52:55.960Z,15
2022-10-15T00:58:08.096Z,15
2022-10-15T01:03:19.989Z,15
2022-10-15T01:08:31.933Z,15
2022-10-15T01:13:43.741Z,15
2022-10-15T01:18:55.489Z,14
2022-10-15T01:24:07.309Z,14
2022-10-15T01:29:19.313Z,14
2022-10-15T01:34:31.238Z,14
2022-10-15T01:39:42.900Z,14
2022-10-15T01:44:55.064Z,14
2022-10-15T01:50:07.159Z,14
2022-10-15T01:55:19.118Z,14
2022-10-15T02:00:31.068Z,14
2022-10-15T02:05:42.770Z,14
2022-10-15T02:10:54.629Z,14
2022-10-15T02:16:06.493Z,14
2022-10-15T02:21:18.118Z,14
2022-10-15T02:26:29.879Z,14
2022-10-15T02:31:41.623Z,14
2022-10-15T02:36:53.430Z,14
2022-10-15T02:42:05.129Z,14
2022-10-15T02:47:16.993Z,14
2022-10-15T02:52:28.742Z,14
2022-10-15T02:57:40.563Z,14
2022-10-15T03:02:52.529Z,14
2022-10-15T03:08:04.512Z,14
2022-10-15T03:13:16.443Z,14
2022-10-15T03:18:28.265Z,14
2022-10-15T03:23:40.322Z,14
2022-10-15T03:28:52.317Z,14
2022-10-15T03:34:04.185Z,14
2022-10-15T03:39:16.093Z,14
2022-10-15T03:44:27.732Z,14
2022-10-15T03:49:39.725Z,14
2022-10-15T03:54:51.652Z,14
2022-10-15T04:00:03.471Z,14
2022-10-15T04:05:15.287Z,14
2022-10-15T04:10:27.163Z,14
2022-10-15T04:15:39.140Z,14
2022-10-15T04:20:51.255Z,14
2022-10-15T04:26:03.350Z,14
2022-10-15T04:31:15.555Z,14
2022-10-15T04:36:28.063Z,14
2022-10-15T04:41:40.308Z,13
2022-10-15T04:46:52.570Z,13
2022-10-15T04:52:04.625Z,14
2022-10-15T04:57:16.692Z,14
2022-10-15T05:02:29.158Z,13
2022-10-15T05:07:42.173Z,13
2022-10-15T05:12:57.433Z,13
2022-10-15T05:18:10.984Z,13
2022-10-15T05:23:23.247Z,13
2022-10-15T05:28:35.391Z,13
2022-10-15T05:33:47.696Z,14
2022-10-15T05:38:59.962Z,14
2022-10-15T05:44:12.257Z,14
2022-10-15T05:49:24.504Z,14
2022-10-15T05:54:36.969Z,14
2022-10-15T05:59:49.338Z,14
2022-10-15T06:05:01.397Z,14
2022-10-15T06:10:13.602Z,14
2022-10-15T06:15:25.646Z,14
2022-10-15T06:20:37.878Z,14
2022-10-15T06:25:50.021Z,14
2022-10-15T06:31:02.660Z,14
2022-10-15T06:36:14.809Z,14
2022-10-15T06:41:27.309Z,14
2022-10-15T06:46:39.764Z,14
2022-10-15T06:51:51.995Z,14
2022-10-15T06:57:04.461Z,14
2022-10-15T07:02:16.815Z,15
2022-10-15T07:07:29.077Z,15
2022-10-15T07:12:41.617Z,15
2022-10-15T07:17:53.814Z,15
2022-10-15T07:23:06.005Z,15
2022-10-15T07:28:18.620Z,15
2022-10-15T07:33:31.022Z,15
2022-10-15T07:38:43.346Z,16
2022-10-15T07:43:56.671Z,16
2022-10-15T07:49:09.804Z,16
2022-10-15T07:54:22.040Z,16
2022-10-15T07:59:34.465Z,16
2022-10-15T08:04:47.042Z,16
2022-10-15T08:09:59.300Z,17
2022-10-15T08:15:11.615Z,17
2022-10-15T08:20:23.806Z,17
2022-10-15T08:25:36.004Z,17
2022-10-15T08:30:48.654Z,17
2022-10-15T08:36:01.246Z,17
2022-10-15T08:41:13.572Z,17
2022-10-15T08:46:25.757Z,18
2022-10-15T08:51:38.160Z,18
2022-10-15T08:56:50.457Z,18
2022-10-15T09:02:02.817Z,18
2022-10-15T09:07:14.872Z,18
2022-10-15T09:12:27.202Z,18
2022-10-15T09:17:39.722Z,19
2022-10-15T09:22:52.425Z,19
2022-10-15T09:28:04.741Z,20
2022-10-15T09:33:17.302Z,20
2022-10-15T09:38:29.691Z,21
2022-10-15T09:43:42.227Z,21
2022-10-15T09:48:54.803Z,21
2022-10-15T09:54:07.160Z,21
2022-10-15T09:59:19.745Z,21
2022-10-15T10:04:32.115Z,21
2022-10-15T10:09:44.522Z,21
2022-10-15T10:14:56.815Z,22
2022-10-15T10:20:09.232Z,22
2022-10-15T10:25:21.628Z,22
2022-10-15T10:30:34.077Z,22
2022-10-15T10:35:46.201Z,22
2022-10-15T10:40:58.446Z,22
2022-10-15T10:46:10.698Z,22
2022-10-15T10:51:23.347Z,22
2022-10-15T10:56:35.676Z,22
2022-10-15T11:01:47.920Z,22
2022-10-15T11:07:00.426Z,22
2022-10-15T11:12:12.816Z,22
2022-10-15T11:22:35.353Z,22
2022-10-15T11:27:47.492Z,22
2022-10-15T11:33:10.300Z,22
2022-10-15T11:38:21.280Z,22
2022-10-15T11:43:33.585Z,22
2022-10-15T11:48:45.851Z,22
2022-10-15T11:53:58.714Z,22
2022-10-15T11:59:11.045Z,22
2022-10-15T12:04:23.763Z,22
2022-10-15T12:09:45.748Z,22
2022-10-15T12:14:58.133Z,22
2022-10-15T12:20:10.849Z,22
2022-10-15T12:25:23.512Z,22
2022-10-15T12:30:36.360Z,22
2022-10-15T12:35:48.531Z,22
2022-10-15T12:41:01.133Z,22
2022-10-15T12:46:13.712Z,22
2022-10-15T12:51:26.221Z,22
2022-10-15T12:56:39.074Z,22
2022-10-15T13:01:51.453Z,22
2022-10-15T13:07:03.860Z,22
2022-10-15T13:12:16.324Z,22
2022-10-15T13:17:28.802Z,22
2022-10-15T13:22:41.400Z,22
2022-10-15T13:27:54.017Z,22
2022-10-15T13:33:06.363Z,22
2022-10-15T13:38:19.324Z,22
2022-10-15T13:43:31.735Z,22
2022-10-15T13:53:56.300Z,22
2022-10-15T13:59:28.515Z,22
2022-10-15T14:04:37.532Z,22
2022-10-15T14:09:49.862Z,22
2022-10-15T14:15:02.524Z,22
2022-10-15T14:20:28.415Z,22
2022-10-15T14:25:38.261Z,21
2022-10-15T14:30:50.742Z,22
2022-10-15T14:36:03.211Z,21
2022-10-15T14:41:15.606Z,22
2022-10-15T14:46:28.047Z,22
2022-10-15T14:51:40.343Z,22
2022-10-15T14:56:54.024Z,22
2022-10-15T15:02:06.252Z,22
2022-10-15T15:07:18.638Z,22
2022-10-15T15:12:32.129Z,22
2022-10-15T15:17:45.425Z,22
2022-10-15T15:22:58.825Z,21
2022-10-15T15:28:10.974Z,21
2022-10-15T15:33:23.810Z,21
2022-10-15T15:43:48.991Z,21
2022-10-15T15:49:01.503Z,21
2022-10-15T15:54:13.905Z,21
2022-10-15T15:59:26.905Z,21
2022-10-15T16:04:39.189Z,21
2022-10-15T16:09:51.699Z,21
2022-10-15T16:15:03.829Z,21
2022-10-15T16:20:15.908Z,21
2022-10-15T16:25:30.591Z,20
2022-10-15T16:30:41.903Z,21
2022-10-15T16:35:54.623Z,21
2022-10-15T16:41:06.321Z,20
2022-10-15T16:46:18.562Z,20
2022-10-15T16:56:43.579Z,20
2022-10-15T17:01:56.539Z,20
2022-10-15T17:07:08.572Z,20
2022-10-15T17:12:20.697Z,20
2022-10-15T17:17:32.828Z,20
2022-10-15T17:22:44.825Z,19
2022-10-15T17:27:56.537Z,19
2022-10-15T17:33:08.483Z,19
2022-10-15T17:38:23.174Z,19
2022-10-15T17:43:41.310Z,19
2022-10-15T17:48:57.568Z,19
2022-10-15T17:54:10.103Z,18
2022-10-15T17:59:23.431Z,18
2022-10-15T18:04:34.941Z,18
2022-10-15T18:09:47.161Z,18
2022-10-15T18:14:59.062Z,18
2022-10-15T18:20:11.090Z,18
2022-10-15T18:25:23.476Z,18
2022-10-15T18:30:35.478Z,18
2022-10-15T18:35:47.383Z,18
2022-10-15T18:40:59.424Z,17
2022-10-15T18:46:11.520Z,17
2022-10-15T18:51:23.771Z,17
2022-10-15T18:56:35.658Z,17
2022-10-15T19:01:47.884Z,17
2022-10-15T19:06:59.759Z,17
2022-10-15T19:12:11.739Z,17
2022-10-15T19:17:33.879Z,17
2022-10-15T19:22:45.794Z,17
2022-10-15T19:27:58.052Z,17
2022-10-15T19:33:10.424Z,17
2022-10-15T19:38:23.883Z,17
2022-10-15T19:43:36.134Z,17
2022-10-15T19:48:48.257Z,17
2022-10-15T19:54:00.422Z,17
2022-10-15T19:59:12.385Z,17
2022-10-15T20:04:25.105Z,17
2022-10-15T20:09:37.474Z,17
2022-10-15T20:14:49.464Z,16
2022-10-15T20:20:01.532Z,16
2022-10-15T20:25:13.477Z,16
2022-10-15T20:30:25.518Z,16
2022-10-15T20:35:37.345Z,16
2022-10-15T20:40:49.266Z,16
2022-10-15T20:46:01.281Z,16
2022-10-15T20:51:13.217Z,16
2022-10-15T20:56:25.609Z,16
2022-10-15T21:01:38.042Z,16
2022-10-15T21:06:50.013Z,16
2022-10-15T21:12:01.924Z,16
2022-10-15T21:17:14.179Z,16
2022-10-15T21:22:26.464Z,16
2022-10-15T21:27:38.551Z,16
2022-10-15T21:32:50.414Z,16
2022-10-15T21:38:02.258Z,16
2022-10-15T21:43:14.146Z,16
2022-10-15T21:48:25.959Z,16
2022-10-15T21:53:38.217Z,16
2022-10-15T21:58:50.022Z,16
2022-10-15T22:04:01.965Z,16
2022-10-15T22:09:13.819Z,16
2022-10-15T22:14:25.910Z,16
2022-10-15T22:19:37.777Z,16
2022-10-15T22:24:49.702Z,16
2022-10-15T22:30:01.453Z,16
2022-10-15T22:35:13.438Z,15
2022-10-15T22:40:25.242Z,15
2022-10-15T22:45:37.230Z,15
2022-10-15T22:50:49.196Z,15
2022-10-15T22:56:01.060Z,15
2022-10-15T23:01:13.207Z,15
2022-10-15T23:06:24.997Z,15
2022-10-15T23:11:37.115Z,15
2022-10-15T23:16:50.003Z,15
2022-10-15T23:22:01.422Z,15
2022-10-15T23:27:14.239Z,15
2022-10-15T23:32:25.767Z,15
2022-10-15T23:37:37.581Z,15
2022-10-15T23:42:49.502Z,15
2022-10-15T23:48:01.161Z,15
2022-10-15T23:53:12.920Z,15
2022-10-15T23:58:24.721Z,15
